Chamberino, New Mexico
Current Conditions -  °F | °C
As of 1:55 AM on Sunday 26 Oct 2014 (Local Time) from KLRU Reporting Station
Clear Clear  
Wind Chill: 58°   Ceiling: Unl
Heat Index: 58°   Visibility: 10mi
Dew Point: 46°   Wind: 9mph
Humidity: 63%   Direction: 280°W
Pressure: 30.15"   Gusts: NA
Location:  32.05°N, 106.68°W
Report Text: KLRU 260755Z AUTO 28008KT 10SM CLR 15/08 A3015 RMK AO2 T01450075
Loading
Personal Weather Stations






























Interactive Weather Map
Tropical Storm Tracking
New forecast layout! Learn more

10-Day Weather Forecast

Advertisements
Track Severe Weather on mobile